createdAt,value
2023-01-12T00:02:22.975Z,7.50
2023-01-12T00:04:51.697Z,10.70
2023-01-12T00:07:20.547Z,7.80
2023-01-12T00:09:49.137Z,9.80
2023-01-12T00:12:17.509Z,7.70
2023-01-12T00:14:45.873Z,9.30
2023-01-12T00:17:17.194Z,7.30
2023-01-12T00:19:45.571Z,8.70
2023-01-12T00:22:14.657Z,10.00
2023-01-12T00:24:49.558Z,8.90
2023-01-12T00:27:22.282Z,7.80
2023-01-12T00:29:50.803Z,9.50
2023-01-12T00:32:20.992Z,7.80
2023-01-12T00:34:49.401Z,7.00
2023-01-12T00:37:19.489Z,7.20
2023-01-12T00:40:01.511Z,6.20
2023-01-12T00:42:49.133Z,5.70
2023-01-12T00:45:23.716Z,6.70
2023-01-12T00:47:53.588Z,7.50
2023-01-12T00:50:22.722Z,8.50
2023-01-12T00:52:51.104Z,6.90
2023-01-12T00:55:19.473Z,7.40
2023-01-12T00:57:48.099Z,6.90
2023-01-12T01:00:17.465Z,7.10
2023-01-12T01:02:46.762Z,6.10
2023-01-12T01:05:17.710Z,8.30
2023-01-12T01:07:47.335Z,8.60
2023-01-12T01:10:17.023Z,7.10
2023-01-12T01:12:45.454Z,6.90
2023-01-12T01:15:13.869Z,9.00
2023-01-12T01:17:42.211Z,9.80
2023-01-12T01:20:11.591Z,7.60
2023-01-12T01:22:39.953Z,8.40
2023-01-12T01:25:09.083Z,6.90
2023-01-12T01:27:37.516Z,12.80
2023-01-12T01:30:06.880Z,7.30
2023-01-12T01:32:35.196Z,7.40
2023-01-12T01:35:03.701Z,11.40
2023-01-12T01:37:32.129Z,8.50
2023-01-12T01:40:00.425Z,7.40
2023-01-12T01:42:28.935Z,8.40
2023-01-12T01:45:01.318Z,6.20
2023-01-12T01:47:47.819Z,7.80
2023-01-12T01:50:35.507Z,7.20
2023-01-12T01:53:07.810Z,5.80
2023-01-12T01:55:49.579Z,5.80
2023-01-12T01:58:24.374Z,7.60
2023-01-12T02:00:53.308Z,7.30
2023-01-12T02:03:21.758Z,8.10
2023-01-12T02:05:50.925Z,8.00
2023-01-12T02:08:34.625Z,6.80
2023-01-12T02:11:03.399Z,9.50
2023-01-12T02:13:50.639Z,6.70
2023-01-12T02:16:30.541Z,6.20
2023-01-12T02:19:37.673Z,9.00
2023-01-12T02:22:45.878Z,8.00
2023-01-12T02:25:42.101Z,7.20
2023-01-12T02:28:47.359Z,8.30
2023-01-12T02:31:52.153Z,7.20
2023-01-12T02:35:08.849Z,7.00
2023-01-12T02:38:26.735Z,7.60
2023-01-12T02:42:01.201Z,9.90
2023-01-12T02:44:39.807Z,6.90
2023-01-12T02:47:18.489Z,7.00
2023-01-12T02:49:53.849Z,7.80
2023-01-12T02:54:55.141Z,6.60
2023-01-12T02:57:26.741Z,6.80
2023-01-12T02:59:57.095Z,5.80
2023-01-12T03:02:27.731Z,6.90
2023-01-12T03:04:56.230Z,5.60
2023-01-12T03:07:40.725Z,8.60
2023-01-12T03:10:18.191Z,9.00
2023-01-12T03:12:51.398Z,6.50
2023-01-12T03:15:20.203Z,5.30
2023-01-12T03:18:00.600Z,6.50
2023-01-12T03:20:44.685Z,6.50
2023-01-12T03:23:23.153Z,6.30
2023-01-12T03:25:54.955Z,6.00
2023-01-12T03:28:27.059Z,7.80
2023-01-12T03:31:03.104Z,5.30
2023-01-12T03:33:31.792Z,6.00
2023-01-12T03:36:12.693Z,7.60
2023-01-12T03:39:12.953Z,5.90
2023-01-12T03:41:56.353Z,5.50
2023-01-12T03:44:38.228Z,6.50
2023-01-12T03:47:24.429Z,8.50
2023-01-12T03:50:09.692Z,5.90
2023-01-12T03:52:41.049Z,7.90
2023-01-12T03:55:16.800Z,7.30
2023-01-12T03:57:46.781Z,9.10
2023-01-12T04:00:17.566Z,6.30
2023-01-12T04:02:46.823Z,8.10
2023-01-12T04:05:16.231Z,7.20
2023-01-12T04:07:44.687Z,7.70
2023-01-12T04:10:13.074Z,7.30
2023-01-12T04:12:41.375Z,7.80
2023-01-12T04:15:10.308Z,9.00
2023-01-12T04:17:38.901Z,7.70
2023-01-12T04:20:09.464Z,7.90
2023-01-12T04:22:43.897Z,7.30
2023-01-12T04:25:13.148Z,9.60
2023-01-12T04:27:50.187Z,8.00
2023-01-12T04:30:22.895Z,8.50
2023-01-12T04:32:51.469Z,8.40
2023-01-12T04:35:20.178Z,8.40
2023-01-12T04:37:48.535Z,8.70
2023-01-12T04:40:18.458Z,10.00
2023-01-12T04:43:01.994Z,8.40
2023-01-12T04:45:37.152Z,10.70
2023-01-12T04:48:10.394Z,8.10
2023-01-12T04:50:40.035Z,8.00
2023-01-12T04:53:12.673Z,9.10
2023-01-12T04:55:43.127Z,10.70
2023-01-12T04:58:12.032Z,7.80
2023-01-12T05:00:40.382Z,9.80
2023-01-12T05:03:15.247Z,9.50
2023-01-12T05:05:43.827Z,9.50
2023-01-12T05:08:30.914Z,15.10
2023-01-12T05:11:01.467Z,8.40
2023-01-12T05:13:31.638Z,9.10
2023-01-12T05:16:16.166Z,9.50
2023-01-12T05:18:46.257Z,8.10
2023-01-12T05:21:17.896Z,9.50
2023-01-12T05:23:46.215Z,15.50
2023-01-12T05:26:15.091Z,15.30
2023-01-12T05:28:43.644Z,7.30
2023-01-12T05:31:14.198Z,7.60
2023-01-12T05:33:43.011Z,12.10
2023-01-12T05:36:14.955Z,10.30
2023-01-12T05:38:43.867Z,8.00
2023-01-12T05:41:14.518Z,9.80
2023-01-12T05:43:53.233Z,11.00
2023-01-12T05:46:28.993Z,11.40
2023-01-12T05:48:58.253Z,7.80
2023-01-12T05:51:27.814Z,8.30
2023-01-12T05:53:56.162Z,14.30
2023-01-12T05:56:27.085Z,7.20
2023-01-12T05:58:58.796Z,8.50
2023-01-12T06:01:29.160Z,8.50
2023-01-12T06:04:01.827Z,10.10
2023-01-12T06:06:31.548Z,8.90
2023-01-12T06:09:01.641Z,9.70
2023-01-12T06:11:48.395Z,9.10
2023-01-12T06:14:16.971Z,7.60
2023-01-12T06:16:45.411Z,10.10
2023-01-12T06:19:14.352Z,10.30
2023-01-12T06:21:42.649Z,10.50
2023-01-12T06:24:11.088Z,15.10
2023-01-12T06:26:39.553Z,9.70
2023-01-12T06:29:08.087Z,8.20
2023-01-12T06:31:38.744Z,11.40
2023-01-12T06:34:10.121Z,8.60
2023-01-12T06:36:39.282Z,8.90
2023-01-12T06:39:07.850Z,10.30
2023-01-12T06:41:54.899Z,9.70
2023-01-12T06:44:23.359Z,8.90
2023-01-12T06:46:52.003Z,11.40
2023-01-12T06:49:20.299Z,12.00
2023-01-12T06:51:51.497Z,13.10
2023-01-12T06:54:20.286Z,9.00
2023-01-12T06:56:48.972Z,13.30
2023-01-12T06:59:17.375Z,14.70
2023-01-12T07:01:46.024Z,10.50
2023-01-12T07:04:14.618Z,13.00
2023-01-12T07:06:43.043Z,9.80
2023-01-12T07:09:11.424Z,10.90
2023-01-12T07:11:40.020Z,12.00
2023-01-12T07:14:09.390Z,10.20
2023-01-12T07:16:37.911Z,11.60
2023-01-12T07:19:06.307Z,8.90
2023-01-12T07:21:34.729Z,11.90
2023-01-12T07:24:03.198Z,14.50
2023-01-12T07:26:31.637Z,10.90
2023-01-12T07:29:00.007Z,9.50
2023-01-12T07:31:28.692Z,9.50
2023-01-12T07:33:57.118Z,12.00
2023-01-12T07:36:25.962Z,9.60
2023-01-12T07:38:54.397Z,9.00
2023-01-12T07:41:41.532Z,9.40
2023-01-12T07:44:09.965Z,9.30
2023-01-12T07:46:38.419Z,9.90
2023-01-12T07:49:06.817Z,13.10
2023-01-12T07:51:35.345Z,11.20
2023-01-12T07:54:03.805Z,6.90
2023-01-12T07:56:32.274Z,9.70
2023-01-12T07:59:00.627Z,7.60
2023-01-12T08:01:29.367Z,7.70
2023-01-12T08:03:57.863Z,8.80
2023-01-12T08:06:26.274Z,14.20
2023-01-12T08:08:54.691Z,7.10
2023-01-12T08:11:23.216Z,9.00
2023-01-12T08:13:56.934Z,7.40
2023-01-12T08:16:35.034Z,7.80
2023-01-12T08:19:12.154Z,10.20
2023-01-12T08:21:47.055Z,9.50
2023-01-12T08:24:22.780Z,9.80
2023-01-12T08:26:58.830Z,13.50
2023-01-12T08:29:40.134Z,9.10
2023-01-12T08:34:45.001Z,10.60
2023-01-12T08:37:17.439Z,8.10
2023-01-12T08:39:47.847Z,7.50
2023-01-12T08:42:16.294Z,8.00
2023-01-12T08:44:45.559Z,12.40
2023-01-12T08:47:21.176Z,10.50
2023-01-12T08:49:49.559Z,8.50
2023-01-12T08:52:17.906Z,6.30
2023-01-12T08:54:47.700Z,5.90
2023-01-12T08:57:17.142Z,7.40
2023-01-12T08:59:45.473Z,7.80
2023-01-12T09:02:15.645Z,4.60
2023-01-12T09:04:45.281Z,7.70
2023-01-12T09:07:14.137Z,7.50
2023-01-12T09:09:42.456Z,5.20
2023-01-12T09:12:10.740Z,4.60
2023-01-12T09:14:39.237Z,5.90
2023-01-12T09:17:07.647Z,5.30
2023-01-12T09:19:35.934Z,5.60
2023-01-12T09:22:04.242Z,4.60
2023-01-12T09:24:32.519Z,6.50
2023-01-12T09:27:01.410Z,6.30
2023-01-12T09:29:29.799Z,5.40
2023-01-12T09:31:58.256Z,6.10
2023-01-12T09:34:26.714Z,7.10
2023-01-12T09:36:56.732Z,5.30
2023-01-12T09:39:28.686Z,3.50
2023-01-12T09:42:17.275Z,5.00
2023-01-12T09:45:09.104Z,6.00
2023-01-12T09:47:50.702Z,7.50
2023-01-12T09:50:36.602Z,5.30
2023-01-12T09:53:23.054Z,3.70
2023-01-12T09:56:20.490Z,3.40
2023-01-12T09:59:13.035Z,4.90
2023-01-12T10:01:41.579Z,2.90
2023-01-12T10:04:10.160Z,4.20
2023-01-12T10:06:39.576Z,6.80
2023-01-12T10:09:17.562Z,4.30
2023-01-12T10:12:11.994Z,6.20
2023-01-12T10:15:04.979Z,7.70
2023-01-12T10:17:50.242Z,7.50
2023-01-12T10:20:33.760Z,4.70
2023-01-12T10:23:08.103Z,2.70
2023-01-12T10:25:48.532Z,2.20
2023-01-12T10:28:31.054Z,6.60
2023-01-12T10:31:00.829Z,5.20
2023-01-12T10:33:34.484Z,5.70
2023-01-12T10:36:14.859Z,3.80
2023-01-12T10:38:52.127Z,3.40
2023-01-12T10:41:23.332Z,4.00
2023-01-12T10:44:00.387Z,2.80
2023-01-12T10:46:33.378Z,4.60
2023-01-12T10:49:23.286Z,3.40
2023-01-12T10:52:10.282Z,3.90
2023-01-12T10:54:41.426Z,4.30
2023-01-12T10:57:22.417Z,6.10
2023-01-12T10:59:58.806Z,4.00
2023-01-12T11:02:42.214Z,3.70
2023-01-12T11:05:38.717Z,3.10
2023-01-12T11:08:36.306Z,4.00
2023-01-12T11:11:23.493Z,3.90
2023-01-12T11:13:58.612Z,3.50
2023-01-12T11:16:33.935Z,3.20
2023-01-12T11:19:21.827Z,4.40
2023-01-12T11:22:05.489Z,3.30
2023-01-12T11:24:52.977Z,5.00
2023-01-12T11:27:30.029Z,7.20
2023-01-12T11:30:04.278Z,2.90
2023-01-12T11:32:41.942Z,2.90
2023-01-12T11:35:37.415Z,4.30
2023-01-12T11:38:15.616Z,4.20
2023-01-12T11:40:45.187Z,2.40
2023-01-12T11:43:32.007Z,4.30
2023-01-12T11:46:26.515Z,5.30
2023-01-12T11:49:24.538Z,4.70
2023-01-12T11:51:59.185Z,3.20
2023-01-12T11:54:30.143Z,3.60
2023-01-12T11:57:32.586Z,5.00
2023-01-12T12:00:33.967Z,4.10
2023-01-12T12:03:36.446Z,3.50
2023-01-12T12:06:26.159Z,2.80
2023-01-12T12:09:31.479Z,5.50
2023-01-12T12:12:05.486Z,4.80
2023-01-12T12:15:00.796Z,3.80
2023-01-12T12:18:01.712Z,4.60
2023-01-12T12:21:00.461Z,3.60
2023-01-12T12:23:57.070Z,7.20
2023-01-12T12:26:40.345Z,3.90
2023-01-12T12:29:42.224Z,3.70
2023-01-12T12:32:41.031Z,3.40
2023-01-12T12:35:23.290Z,5.60
2023-01-12T12:38:36.368Z,5.70
2023-01-12T12:41:49.900Z,7.80
2023-01-12T12:45:17.868Z,2.30
2023-01-12T12:48:12.867Z,4.60
2023-01-12T12:50:57.259Z,6.20
2023-01-12T12:53:32.849Z,5.70
2023-01-12T12:56:18.063Z,4.50
2023-01-12T12:58:48.875Z,1.80
2023-01-12T13:01:20.148Z,2.30
2023-01-12T13:04:00.643Z,4.60
2023-01-12T13:06:49.541Z,2.00
2023-01-12T13:09:17.813Z,6.20
2023-01-12T13:12:07.353Z,2.50
2023-01-12T13:14:42.568Z,3.30
2023-01-12T13:17:19.993Z,5.60
2023-01-12T13:20:24.561Z,7.60
2023-01-12T13:22:53.569Z,9.60
2023-01-12T13:25:26.438Z,10.30
2023-01-12T13:28:00.904Z,5.00
2023-01-12T13:30:29.368Z,7.60
2023-01-12T13:33:15.890Z,3.80
2023-01-12T13:35:45.025Z,4.40
2023-01-12T13:38:43.883Z,5.60
2023-01-12T13:41:15.182Z,3.30
2023-01-12T13:43:48.488Z,4.50
2023-01-12T13:46:29.312Z,4.10
2023-01-12T13:48:58.730Z,2.90
2023-01-12T13:51:55.273Z,1.80
2023-01-12T13:54:23.891Z,2.40
2023-01-12T13:57:03.252Z,3.20
2023-01-12T13:59:32.141Z,4.30
2023-01-12T14:02:01.253Z,3.90
2023-01-12T14:05:00.710Z,7.20
2023-01-12T14:08:32.160Z,5.90
2023-01-12T14:11:49.810Z,7.60
2023-01-12T14:15:15.838Z,5.90
2023-01-12T14:17:50.139Z,7.90
2023-01-12T14:20:27.821Z,6.80
2023-01-12T14:23:34.688Z,5.20
2023-01-12T14:26:09.191Z,7.40
2023-01-12T14:28:43.831Z,5.90
2023-01-12T14:31:19.049Z,10.40
2023-01-12T14:34:00.900Z,6.70
2023-01-12T14:36:35.982Z,7.70
2023-01-12T14:39:10.439Z,6.70
2023-01-12T14:41:57.585Z,5.30
2023-01-12T14:44:45.246Z,6.30
2023-01-12T14:47:35.013Z,40.80
2023-01-12T14:50:12.627Z,8.90
2023-01-12T14:52:43.485Z,6.70
2023-01-12T14:55:41.756Z,7.00
2023-01-12T14:58:21.302Z,5.10
2023-01-12T15:00:49.713Z,5.80
2023-01-12T15:03:26.341Z,4.80
2023-01-12T15:05:59.160Z,4.60
2023-01-12T15:08:28.090Z,10.30
2023-01-12T15:11:07.691Z,8.80
2023-01-12T15:13:38.107Z,7.90
2023-01-12T15:16:27.224Z,4.80
2023-01-12T15:19:13.877Z,8.80
2023-01-12T15:22:05.040Z,6.50
2023-01-12T15:24:54.471Z,9.20
2023-01-12T15:27:25.143Z,8.00
2023-01-12T15:29:54.980Z,8.50
2023-01-12T15:32:47.472Z,8.30
2023-01-12T15:35:26.398Z,7.50
2023-01-12T15:37:57.316Z,15.20
2023-01-12T15:40:27.955Z,9.20
2023-01-12T15:42:59.045Z,5.20
2023-01-12T15:45:39.596Z,5.80
2023-01-12T15:48:08.584Z,7.10
2023-01-12T15:50:40.717Z,4.00
2023-01-12T15:53:22.692Z,22.50
2023-01-12T15:55:51.392Z,14.10
2023-01-12T15:58:19.797Z,30.70
2023-01-12T16:00:48.388Z,24.40
2023-01-12T16:03:49.076Z,13.00
2023-01-12T16:06:06.691Z,31.10
2023-01-12T16:08:35.123Z,34.30
2023-01-12T16:11:14.213Z,19.20
2023-01-12T16:13:42.542Z,19.80
2023-01-12T16:16:15.907Z,12.60
2023-01-12T16:18:44.633Z,8.50
2023-01-12T16:21:17.111Z,13.80
2023-01-12T16:23:46.251Z,6.80
2023-01-12T16:26:14.657Z,13.80
2023-01-12T16:28:43.574Z,17.90
2023-01-12T16:31:14.463Z,12.20
2023-01-12T16:33:44.599Z,8.30
2023-01-12T16:36:14.863Z,14.10
2023-01-12T16:38:43.492Z,6.40
2023-01-12T16:41:18.977Z,9.70
2023-01-12T16:43:47.487Z,12.30
2023-01-12T16:46:16.711Z,5.30
2023-01-12T16:48:45.107Z,5.40
2023-01-12T16:51:16.345Z,19.30
2023-01-12T16:53:46.534Z,23.50
2023-01-12T16:56:16.619Z,15.00
2023-01-12T16:58:48.628Z,10.80
2023-01-12T17:01:26.646Z,7.30
2023-01-12T17:03:57.954Z,5.40
2023-01-12T17:06:28.723Z,5.30
2023-01-12T17:09:00.663Z,7.70
2023-01-12T17:11:30.918Z,5.40
2023-01-12T17:13:59.597Z,5.40
2023-01-12T17:16:29.397Z,8.60
2023-01-12T17:18:57.923Z,5.70
2023-01-12T17:21:26.302Z,4.40
2023-01-12T17:23:54.656Z,5.50
2023-01-12T17:26:23.041Z,6.20
2023-01-12T17:28:51.405Z,3.10
2023-01-12T17:31:20.612Z,3.80
2023-01-12T17:33:50.463Z,7.20
2023-01-12T17:36:19.097Z,2.90
2023-01-12T17:38:47.487Z,5.20
2023-01-12T17:41:35.239Z,4.30
2023-01-12T17:44:05.571Z,3.70
2023-01-12T17:46:34.789Z,4.80
2023-01-12T17:49:09.257Z,4.70
2023-01-12T17:51:40.517Z,4.60
2023-01-12T17:54:14.151Z,6.40
2023-01-12T17:56:43.130Z,3.80
2023-01-12T17:59:18.257Z,4.70
2023-01-12T18:01:47.685Z,5.30
2023-01-12T18:04:17.221Z,4.40
2023-01-12T18:06:46.249Z,5.00
2023-01-12T18:09:14.683Z,6.90
2023-01-12T18:11:43.271Z,5.70
2023-01-12T18:14:12.451Z,6.80
2023-01-12T18:16:41.163Z,9.10
2023-01-12T18:19:11.416Z,7.60
2023-01-12T18:21:39.758Z,6.60
2023-01-12T18:24:08.355Z,7.30
2023-01-12T18:26:38.112Z,5.60
2023-01-12T18:29:07.018Z,6.10
2023-01-12T18:31:37.511Z,5.00
2023-01-12T18:34:10.060Z,3.40
2023-01-12T18:36:41.159Z,3.00
2023-01-12T18:39:17.850Z,5.00
2023-01-12T18:42:06.087Z,7.70
2023-01-12T18:44:35.553Z,5.60
2023-01-12T18:47:23.127Z,3.70
2023-01-12T18:49:53.870Z,6.10
2023-01-12T18:52:40.648Z,8.00
2023-01-12T18:55:09.134Z,6.80
2023-01-12T18:57:37.486Z,5.30
2023-01-12T19:00:12.908Z,5.90
2023-01-12T19:02:41.988Z,5.80
2023-01-12T19:05:20.466Z,13.20
2023-01-12T19:07:58.035Z,6.70
2023-01-12T19:10:28.615Z,12.30
2023-01-12T19:13:17.152Z,11.80
2023-01-12T19:16:04.303Z,9.40
2023-01-12T19:18:36.932Z,6.10
2023-01-12T19:21:27.365Z,6.10
2023-01-12T19:24:14.507Z,5.30
2023-01-12T19:27:01.433Z,5.90
2023-01-12T19:29:29.780Z,8.80
2023-01-12T19:31:58.355Z,6.70
2023-01-12T19:34:26.947Z,7.80
2023-01-12T19:36:55.461Z,8.10
2023-01-12T19:39:44.075Z,6.90
2023-01-12T19:42:33.518Z,7.60
2023-01-12T19:45:03.669Z,7.60
2023-01-12T19:47:31.964Z,27.20
2023-01-12T19:50:01.599Z,21.20
2023-01-12T19:52:30.031Z,15.90
2023-01-12T19:54:58.478Z,8.70
2023-01-12T19:57:26.875Z,16.10
2023-01-12T19:59:55.265Z,13.40
2023-01-12T20:02:23.815Z,8.30
2023-01-12T20:04:52.535Z,12.30
2023-01-12T20:07:21.034Z,7.60
2023-01-12T20:09:49.409Z,6.30
2023-01-12T20:12:17.877Z,17.40
2023-01-12T20:14:46.175Z,13.10
2023-01-12T20:17:15.291Z,7.50
2023-01-12T20:19:43.638Z,5.90
2023-01-12T20:22:12.011Z,9.10
2023-01-12T20:24:40.335Z,9.90
2023-01-12T20:27:08.683Z,4.00
2023-01-12T20:29:37.098Z,6.90
2023-01-12T20:32:07.289Z,8.30
2023-01-12T20:34:35.654Z,8.40
2023-01-12T20:37:04.020Z,5.80
2023-01-12T20:39:32.503Z,6.00
2023-01-12T20:42:01.272Z,6.50
2023-01-12T20:44:29.689Z,5.50
2023-01-12T20:46:58.194Z,4.60
2023-01-12T20:49:26.649Z,7.10
2023-01-12T20:51:58.636Z,22.00
2023-01-12T20:54:27.037Z,22.00
2023-01-12T20:56:58.086Z,25.40
2023-01-12T20:59:26.652Z,12.90
2023-01-12T21:01:55.492Z,10.40
2023-01-12T21:04:23.955Z,6.00
2023-01-12T21:06:52.303Z,7.50
2023-01-12T21:09:20.752Z,15.10
2023-01-12T21:11:50.395Z,13.00
2023-01-12T21:14:19.563Z,11.60
2023-01-12T21:16:47.875Z,11.00
2023-01-12T21:19:16.889Z,13.90
2023-01-12T21:21:45.310Z,16.10
2023-01-12T21:24:13.785Z,12.60
2023-01-12T21:26:42.100Z,16.70
2023-01-12T21:29:10.494Z,21.50
2023-01-12T21:31:38.825Z,20.00
2023-01-12T21:34:07.190Z,36.70
2023-01-12T21:36:35.871Z,38.50
2023-01-12T21:39:04.311Z,19.20
2023-01-12T21:41:52.570Z,9.00
2023-01-12T21:44:20.905Z,9.60
2023-01-12T21:46:49.224Z,10.10
2023-01-12T21:49:17.550Z,6.70
2023-01-12T21:51:45.816Z,18.00
2023-01-12T21:54:14.227Z,14.10
2023-01-12T21:56:42.597Z,13.20
2023-01-12T21:59:12.455Z,15.40
2023-01-12T22:01:40.893Z,9.70
2023-01-12T22:04:09.600Z,5.90
2023-01-12T22:06:38.016Z,7.90
2023-01-12T22:09:06.324Z,7.00
2023-01-12T22:11:34.781Z,10.40
2023-01-12T22:14:03.190Z,9.70
2023-01-12T22:16:31.555Z,7.80
2023-01-12T22:18:59.975Z,6.00
2023-01-12T22:21:28.277Z,7.20
2023-01-12T22:23:56.582Z,6.90
2023-01-12T22:26:27.592Z,4.50
2023-01-12T22:28:56.021Z,4.10
2023-01-12T22:31:25.524Z,7.40
2023-01-12T22:34:06.866Z,6.00
2023-01-12T22:36:42.853Z,4.00
2023-01-12T22:39:12.962Z,6.00
2023-01-12T22:41:41.476Z,3.40
2023-01-12T22:44:09.923Z,3.80
2023-01-12T22:46:38.538Z,3.70
2023-01-12T22:49:07.358Z,3.30
2023-01-12T22:51:36.126Z,2.60
2023-01-12T22:54:04.528Z,4.00
2023-01-12T22:56:32.978Z,3.60
2023-01-12T22:59:02.052Z,3.50
2023-01-12T23:01:30.610Z,2.80
2023-01-12T23:03:59.216Z,6.10
2023-01-12T23:06:28.051Z,3.00
2023-01-12T23:08:56.475Z,4.40
2023-01-12T23:11:26.958Z,5.50
2023-01-12T23:13:55.389Z,5.30
2023-01-12T23:16:24.239Z,4.00
2023-01-12T23:18:55.498Z,3.70
2023-01-12T23:21:27.816Z,4.00
2023-01-12T23:23:59.249Z,5.30
2023-01-12T23:26:32.638Z,2.90
2023-01-12T23:29:03.104Z,4.80
2023-01-12T23:31:33.677Z,4.10
2023-01-12T23:34:02.506Z,3.70
2023-01-12T23:36:31.458Z,3.60
2023-01-12T23:39:03.619Z,3.90
2023-01-12T23:41:35.764Z,6.60
2023-01-12T23:44:08.061Z,4.80
2023-01-12T23:46:40.961Z,4.30
2023-01-12T23:49:10.007Z,5.50
2023-01-12T23:51:38.456Z,4.80
2023-01-12T23:54:06.954Z,5.20
2023-01-12T23:56:35.376Z,3.70
2023-01-12T23:59:03.748Z,4.20
